Airfield :







YOU CAN JOIN US ON...

 
LOGIN :

Register | Disclaimer

   EN    FR    IT 

 









Legend :    VFR   Marginal VFR   IFR   Intensive IFR   Very Intensive IFR
Visi :
Ceiling :
>= 8 km
>= 3000ft
5 to 8 km
1000 to 3000 ft
1500m to 5 km
500 to 1000 ft
800 to 1500m
200 to 500 ft
< 800m
< 200 ft
Symbols :   Thunderstorms  Fog  Heavy snow  Heavy precipitations  Wind > 20 kt







- Airport Elevation : 56 ft


KRKD - Knox County Regional

CURRENT METAR :
  • 160756Z AUTO 23012G17KT 10SM CLR 16/12 A2981 RMK AO2 RAB03E21 SLP095 P0000 T01610117

EXPIRED METARs :
  • 160656Z AUTO 24013G21KT 10SM FEW090 17/12 A2980 RMK AO2 SLP091 T01670117
  • 160556Z AUTO 23013G18KT 10SM CLR 17/12 A2980 RMK AO2 SLP089 T01670117 10194 20156 58012

TAF KRKD
Valid from the 16 at 06:00 until the 17 at 06:00 UTC


160520Z 1606/1706 23012G21KT P6SM BKN100
FM161000 22007G15KT P6SM VCSH BKN050
FM170500 34003KT 2SM BR SCT003 OVC015 AMD LTD TO CLD VIS AND WIND
KZBW FIR / North America



MET'MAP, your aeronautical weather chart ! - Copyright ORBIFLY December 2007 - Disclaimer

ORBIFLY MET'MAP TEAM :

Programming & Development : Alexandra Zaïnal
Concept & Development : Baudouin d'Aumeries
Co-Development & Prog : Marc-Olivier Méhu
Technical & hardware support : Manuel Goepfert

Contact : metmap@orbifly.com




SOURCES & CREDITS :

   NOAA